Time;durP1;ratioP1;P1;durP2;ratioP2;P2;SDS_P1;SDS_P2;PMS_P1;PMS_P2;Temp;Humidity;BMP_temperature;BMP_pressure;BME280_temperature;BME280_humidity;BME280_pressure;Samples;Min_cycle;Max_cycle;Signal;HPM_P1;HPM_P2
2024/01/09 00:00:44;;;;;;;2.45;1.60;;;21.30;45.10;;;;;;4955647;28;88514;-81
2024/01/09 00:03:09;;;;;;;2.30;1.88;;;21.30;45.30;;;;;;4958656;28;87131;-81
2024/01/09 00:05:35;;;;;;;2.22;1.60;;;21.30;45.20;;;;;;4957060;28;87958;-84
2024/01/09 00:08:00;;;;;;;2.20;1.60;;;21.20;45.20;;;;;;4954122;28;88542;-81
2024/01/09 00:10:26;;;;;;;2.65;1.63;;;21.20;45.20;;;;;;4953738;28;87332;-81
2024/01/09 00:12:52;;;;;;;2.10;1.63;;;21.20;45.30;;;;;;4955314;28;87668;-82
2024/01/09 00:15:18;;;;;;;2.35;1.92;;;21.20;45.30;;;;;;4958205;28;87528;-84
2024/01/09 00:17:43;;;;;;;2.13;1.75;;;21.20;45.20;;;;;;4958307;28;87629;-83
2024/01/09 00:20:10;;;;;;;2.65;1.65;;;21.20;45.20;;;;;;4953438;28;87538;-83
2024/01/09 00:22:36;;;;;;;2.30;1.60;;;21.10;45.10;;;;;;4957723;28;88069;-87
2024/01/09 00:25:01;;;;;;;2.05;1.48;;;21.10;45.30;;;;;;4956846;28;88849;-83
2024/01/09 00:27:27;;;;;;;2.03;1.77;;;21.10;45.30;;;;;;4955548;28;88585;-81
2024/01/09 00:29:52;;;;;;;2.13;1.70;;;21.10;45.20;;;;;;4956913;28;87228;-81
2024/01/09 00:32:18;;;;;;;2.47;1.75;;;21.00;45.20;;;;;;4959053;28;87729;-82
2024/01/09 00:34:44;;;;;;;2.50;1.60;;;21.00;45.10;;;;;;4960693;28;87539;-81
2024/01/09 00:37:11;;;;;;;3.03;1.75;;;21.00;45.10;;;;;;4957104;28;87625;-86
2024/01/09 00:39:36;;;;;;;2.88;1.88;;;21.00;45.30;;;;;;4957447;28;87329;-81
2024/01/09 00:42:02;;;;;;;1.63;1.33;;;21.00;45.20;;;;;;4954343;28;89890;-82
2024/01/09 00:44:28;;;;;;;2.70;1.73;;;20.90;45.30;;;;;;4958788;28;89656;-81
2024/01/09 00:46:53;;;;;;;2.00;1.75;;;20.90;45.30;;;;;;4959313;28;87290;-81
2024/01/09 00:49:19;;;;;;;2.95;1.88;;;20.90;45.40;;;;;;4954309;28;88708;-83
2024/01/09 00:51:45;;;;;;;1.67;1.40;;;20.80;45.40;;;;;;4958656;28;88015;-81
2024/01/09 00:54:10;;;;;;;2.65;1.55;;;20.80;45.40;;;;;;4956767;28;89744;-82
2024/01/09 00:56:36;;;;;;;2.22;1.60;;;20.80;45.40;;;;;;4958612;28;87523;-82
2024/01/09 00:59:02;;;;;;;1.70;1.50;;;20.80;45.40;;;;;;4955941;28;87220;-84
2024/01/09 01:01:27;;;;;;;1.77;1.40;;;20.80;45.40;;;;;;4958409;28;87484;-81
2024/01/09 01:03:53;;;;;;;2.22;1.67;;;20.70;44.90;;;;;;4958281;28;87742;-81
2024/01/09 01:06:18;;;;;;;1.55;1.45;;;20.70;44.90;;;;;;4956687;28;87862;-83
2024/01/09 01:08:44;;;;;;;2.15;1.50;;;20.70;44.80;;;;;;4955222;28;87025;-82
2024/01/09 01:11:10;;;;;;;1.75;1.52;;;20.70;45.00;;;;;;4955474;28;86944;-81
2024/01/09 01:13:36;;;;;;;1.80;1.42;;;20.70;45.20;;;;;;4952207;28;88947;-80
2024/01/09 01:16:01;;;;;;;2.78;1.88;;;20.70;45.00;;;;;;4953230;28;88362;-81
2024/01/09 01:18:27;;;;;;;1.60;1.30;;;20.60;45.00;;;;;;4954594;28;87627;-81
2024/01/09 01:20:52;;;;;;;1.90;1.60;;;20.60;45.00;;;;;;4956955;28;88783;-82
2024/01/09 01:23:18;;;;;;;1.77;1.50;;;20.60;45.00;;;;;;4952935;28;87361;-81
2024/01/09 01:25:44;;;;;;;1.70;1.40;;;20.60;45.10;;;;;;4959638;28;88057;-85
2024/01/09 01:28:10;;;;;;;1.92;1.67;;;20.60;45.00;;;;;;4957127;28;87015;-82
2024/01/09 01:30:35;;;;;;;2.00;1.60;;;20.60;44.80;;;;;;4957238;28;87057;-86
2024/01/09 01:33:01;;;;;;;1.73;1.38;;;20.50;44.90;;;;;;4956652;28;88560;-82
2024/01/09 01:35:27;;;;;;;2.33;1.73;;;20.50;44.90;;;;;;4956809;28;87437;-85
2024/01/09 01:37:53;;;;;;;2.22;1.60;;;20.50;45.00;;;;;;4957595;28;88987;-83
2024/01/09 01:40:18;;;;;;;2.13;1.60;;;20.40;45.10;;;;;;4953239;28;87321;-81
2024/01/09 01:42:44;;;;;;;1.40;1.23;;;20.50;45.10;;;;;;4956187;28;87230;-81
2024/01/09 01:45:18;;;;;;;1.70;1.50;;;20.40;45.10;;;;;;4954765;28;87962;-81
2024/01/09 01:47:46;;;;;;;1.70;1.20;;;20.40;45.00;;;;;;4954194;28;87668;-85
2024/01/09 01:50:13;;;;;;;1.60;1.50;;;20.40;45.10;;;;;;4955780;28;87354;-81
2024/01/09 01:52:41;;;;;;;1.50;1.40;;;20.40;45.00;;;;;;4957169;28;88238;-81
2024/01/09 01:55:10;;;;;;;1.70;1.60;;;20.40;45.10;;;;;;4959888;28;88633;-82
2024/01/09 01:57:37;;;;;;;2.45;1.77;;;20.30;45.70;;;;;;4954373;28;87648;-83
2024/01/09 02:00:03;;;;;;;2.00;1.67;;;20.30;45.00;;;;;;4956758;28;88363;-89
2024/01/09 02:02:30;;;;;;;1.98;1.50;;;20.30;44.90;;;;;;4950687;28;88452;-81
2024/01/09 02:04:56;;;;;;;1.73;1.33;;;20.30;45.00;;;;;;4958780;28;88954;-81
2024/01/09 02:07:26;;;;;;;1.58;1.23;;;20.30;45.00;;;;;;4953857;28;87881;-84
2024/01/09 02:09:53;;;;;;;;;;;20.30;45.10;;;;;;4957012;28;88042;-81
2024/01/09 02:12:19;;;;;;;2.80;1.75;;;20.20;44.90;;;;;;4960222;28;87665;-81
2024/01/09 02:14:46;;;;;;;2.15;1.40;;;20.20;45.00;;;;;;4958024;28;88762;-81
2024/01/09 02:17:12;;;;;;;1.55;1.45;;;20.20;45.00;;;;;;4957276;28;87373;-84
2024/01/09 02:19:38;;;;;;;3.10;1.60;;;20.20;45.20;;;;;;4953969;28;87104;-81
2024/01/09 02:22:05;;;;;;;2.10;1.73;;;20.20;45.00;;;;;;4956398;28;88054;-83
2024/01/09 02:24:31;;;;;;;1.73;1.50;;;20.10;45.10;;;;;;4953928;28;87802;-81
2024/01/09 02:27:30;;;;;;;1.98;1.75;;;20.10;44.90;;;;;;4958322;28;88825;-82
2024/01/09 02:29:56;;;;;;;2.58;1.35;;;20.10;45.00;;;;;;4958705;28;90720;-85
2024/01/09 02:32:22;;;;;;;1.85;1.70;;;20.10;45.10;;;;;;4957675;28;87988;-81
2024/01/09 02:34:49;;;;;;;2.38;1.92;;;20.10;45.10;;;;;;4953289;28;87732;-80
2024/01/09 02:37:14;;;;;;;2.42;1.70;;;20.10;45.00;;;;;;4955984;28;87319;-84
2024/01/09 02:39:40;;;;;;;2.15;1.67;;;20.10;45.00;;;;;;4955637;28;88185;-83
2024/01/09 02:42:06;;;;;;;1.52;1.40;;;20.00;44.80;;;;;;4957623;28;87734;-85
2024/01/09 02:44:31;;;;;;;2.08;1.65;;;20.00;44.90;;;;;;4955548;28;87024;-81
2024/01/09 02:46:57;;;;;;;1.88;1.67;;;20.00;45.00;;;;;;4955516;28;88025;-86
2024/01/09 02:49:23;;;;;;;2.28;1.73;;;20.00;45.10;;;;;;4950955;28;87940;-84
2024/01/09 02:51:49;;;;;;;2.08;1.88;;;20.00;45.10;;;;;;4952729;28;89188;-81
2024/01/09 02:54:14;;;;;;;1.92;1.65;;;20.00;45.20;;;;;;4955999;28;87438;-81
2024/01/09 02:56:41;;;;;;;2.33;1.88;;;20.00;45.00;;;;;;4961226;28;87707;-83
2024/01/09 02:59:07;;;;;;;1.83;1.55;;;19.90;45.00;;;;;;4960421;28;88096;-82
2024/01/09 03:01:32;;;;;;;1.88;1.48;;;19.90;45.00;;;;;;4959629;28;87719;-84
2024/01/09 03:03:58;;;;;;;1.40;1.30;;;19.90;44.90;;;;;;4957347;28;88136;-83
2024/01/09 03:06:24;;;;;;;2.17;1.88;;;19.90;44.90;;;;;;4960050;28;87935;-81
2024/01/09 03:08:49;;;;;;;2.47;1.52;;;19.90;44.90;;;;;;4958080;28;87337;-81
2024/01/09 03:11:15;;;;;;;1.55;1.30;;;19.90;45.10;;;;;;4954945;28;88243;-81
2024/01/09 03:13:41;;;;;;;2.67;1.90;;;19.80;45.00;;;;;;4960725;28;87563;-80
2024/01/09 03:16:13;;;;;;;2.20;2.00;;;19.80;45.00;;;;;;4957753;28;89902;-82
2024/01/09 03:18:40;;;;;;;2.13;1.65;;;19.90;45.10;;;;;;4958536;28;88291;-81
2024/01/09 03:21:06;;;;;;;1.88;1.35;;;19.80;45.10;;;;;;4964345;28;88113;-81
2024/01/09 03:23:33;;;;;;;2.17;1.50;;;19.80;45.10;;;;;;4968518;28;87683;-82
2024/01/09 03:25:58;;;;;;;1.85;1.65;;;19.80;45.10;;;;;;4961425;28;87587;-84
2024/01/09 03:28:25;;;;;;;1.80;1.63;;;19.80;45.20;;;;;;4971821;28;87790;-85
2024/01/09 03:30:51;;;;;;;3.38;1.50;;;19.80;45.10;;;;;;4972468;28;88910;-82
2024/01/09 03:33:17;;;;;;;1.48;1.38;;;19.80;45.00;;;;;;4968462;28;86660;-82
2024/01/09 03:35:43;;;;;;;1.85;1.55;;;19.70;45.00;;;;;;4962128;28;87774;-81
2024/01/09 03:38:08;;;;;;;1.88;1.42;;;19.70;45.00;;;;;;4960830;28;87836;-82
2024/01/09 03:40:35;;;;;;;2.80;1.58;;;19.70;45.00;;;;;;4960388;28;89070;-81
2024/01/09 03:43:02;;;;;;;2.15;1.63;;;19.70;45.10;;;;;;4961840;28;88685;-81
2024/01/09 03:45:28;;;;;;;1.55;1.45;;;19.70;45.20;;;;;;4960068;28;87806;-81
2024/01/09 03:47:54;;;;;;;1.65;1.35;;;19.70;45.10;;;;;;4960052;28;87226;-81
2024/01/09 03:50:19;;;;;;;2.47;1.95;;;19.60;45.10;;;;;;4960528;28;87713;-81
2024/01/09 03:52:45;;;;;;;1.95;1.55;;;19.60;45.00;;;;;;4959183;28;88974;-81
2024/01/09 03:55:11;;;;;;;2.17;1.70;;;19.60;45.00;;;;;;4957470;28;87327;-81
2024/01/09 03:57:37;;;;;;;2.47;1.70;;;19.60;45.10;;;;;;4957638;28;88164;-82
2024/01/09 04:00:03;;;;;;;2.05;1.70;;;19.60;45.10;;;;;;4959809;28;88630;-84
2024/01/09 04:02:28;;;;;;;2.40;2.00;;;19.60;45.00;;;;;;4957872;28;87587;-81
2024/01/09 04:04:54;;;;;;;3.25;1.90;;;19.60;44.90;;;;;;4960301;28;89090;-81
2024/01/09 04:07:20;;;;;;;1.95;1.50;;;19.60;45.20;;;;;;4956607;28;87519;-81
2024/01/09 04:09:45;;;;;;;1.80;1.60;;;19.50;44.90;;;;;;4959138;28;88094;-81
2024/01/09 04:12:11;;;;;;;2.03;1.77;;;19.60;45.00;;;;;;4959935;28;87528;-81
2024/01/09 04:14:37;;;;;;;1.73;1.40;;;19.50;45.50;;;;;;4955469;28;87407;-81
2024/01/09 04:17:03;;;;;;;2.22;1.83;;;19.50;44.90;;;;;;4958820;28;87862;-81
2024/01/09 04:19:29;;;;;;;2.15;1.58;;;19.50;44.80;;;;;;4958622;28;87707;-82
2024/01/09 04:21:54;;;;;;;1.88;1.60;;;19.50;44.90;;;;;;4953236;28;87467;-82
2024/01/09 04:24:20;;;;;;;2.35;1.73;;;19.50;44.80;;;;;;4957027;28;87875;-81
2024/01/09 04:26:46;;;;;;;1.60;1.50;;;19.50;44.90;;;;;;4957874;28;87401;-81
2024/01/09 04:29:11;;;;;;;1.80;1.52;;;19.50;44.90;;;;;;4958779;28;91399;-81
2024/01/09 04:31:37;;;;;;;2.28;1.70;;;19.50;44.80;;;;;;4959808;28;87617;-86
2024/01/09 04:34:03;;;;;;;2.03;1.80;;;19.40;44.90;;;;;;4967375;28;87750;-82
2024/01/09 04:36:28;;;;;;;1.58;1.48;;;19.40;45.00;;;;;;4968036;28;86970;-83
2024/01/09 04:38:54;;;;;;;1.80;1.50;;;19.40;45.00;;;;;;4965600;28;87393;-81
2024/01/09 04:41:20;;;;;;;2.10;1.70;;;19.40;45.70;;;;;;4966989;28;88390;-83
2024/01/09 04:43:46;;;;;;;2.38;1.88;;;19.40;44.90;;;;;;4970470;28;86957;-81
2024/01/09 04:46:12;;;;;;;1.88;1.58;;;19.40;45.00;;;;;;4968032;28;87787;-82
2024/01/09 04:48:37;;;;;;;2.05;1.83;;;19.40;45.00;;;;;;4965162;28;87658;-81
2024/01/09 04:51:03;;;;;;;2.20;1.88;;;19.40;45.00;;;;;;4967359;28;87339;-81
2024/01/09 04:53:29;;;;;;;2.35;1.70;;;19.40;44.90;;;;;;4966980;28;88875;-81
2024/01/09 04:55:54;;;;;;;1.85;1.60;;;19.30;45.00;;;;;;4964976;28;87417;-83
2024/01/09 04:58:20;;;;;;;2.30;1.60;;;19.30;44.90;;;;;;4967242;28;87436;-81
2024/01/09 05:00:47;;;;;;;2.05;1.42;;;19.30;44.80;;;;;;4963937;28;87083;-83
2024/01/09 05:03:13;;;;;;;1.73;1.55;;;19.30;44.80;;;;;;4982713;28;86406;-83
2024/01/09 05:05:38;;;;;;;1.90;1.70;;;19.30;45.00;;;;;;4983521;28;89426;-81
2024/01/09 05:08:04;;;;;;;1.60;1.35;;;19.30;45.00;;;;;;4983931;28;87021;-82
2024/01/09 05:10:31;;;;;;;2.20;1.60;;;19.30;44.90;;;;;;4983707;28;86175;-85
2024/01/09 05:12:57;;;;;;;2.08;1.85;;;19.30;44.90;;;;;;4977012;28;87256;-81
2024/01/09 05:15:22;;;;;;;1.63;1.50;;;19.20;45.00;;;;;;4968731;28;87600;-81
2024/01/09 05:17:48;;;;;;;1.80;1.35;;;19.30;45.20;;;;;;4964675;28;88424;-82
2024/01/09 05:20:14;;;;;;;1.70;1.50;;;19.20;45.00;;;;;;4961985;28;87123;-83
2024/01/09 05:22:39;;;;;;;1.92;1.65;;;19.20;45.00;;;;;;4960241;28;87071;-82
2024/01/09 05:25:06;;;;;;;2.28;1.80;;;19.20;45.00;;;;;;4958550;28;89671;-82
2024/01/09 05:27:32;;;;;;;2.17;1.77;;;19.20;44.90;;;;;;4955747;28;88343;-82
2024/01/09 05:29:58;;;;;;;1.67;1.48;;;19.20;44.70;;;;;;4960395;28;87297;-81
2024/01/09 05:32:24;;;;;;;1.80;1.60;;;19.20;44.90;;;;;;4959220;28;87434;-83
2024/01/09 05:34:50;;;;;;;1.75;1.65;;;19.20;44.70;;;;;;4955835;28;86985;-80
2024/01/09 05:37:16;;;;;;;2.38;1.85;;;19.20;44.60;;;;;;4955176;28;87472;-82
2024/01/09 05:39:45;;;;;;;1.63;1.30;;;19.20;44.70;;;;;;4956492;28;87573;-80
2024/01/09 05:42:11;;;;;;;2.42;1.80;;;19.10;44.80;;;;;;4959066;28;88194;-80
2024/01/09 05:44:37;;;;;;;2.08;1.65;;;19.10;44.60;;;;;;4955519;28;87945;-80
2024/01/09 05:47:03;;;;;;;1.67;1.58;;;19.10;44.70;;;;;;4953111;28;90308;-80
2024/01/09 05:49:29;;;;;;;1.90;1.55;;;19.10;44.60;;;;;;4956607;28;88231;-80
2024/01/09 05:51:54;;;;;;;1.75;1.63;;;19.10;44.70;;;;;;4957598;28;87846;-81
2024/01/09 05:54:20;;;;;;;1.77;1.40;;;19.10;45.00;;;;;;4958359;28;88105;-79
2024/01/09 05:56:46;;;;;;;1.95;1.75;;;19.10;44.90;;;;;;4951077;28;87867;-79
2024/01/09 05:59:12;;;;;;;2.03;1.83;;;19.10;44.90;;;;;;4956629;28;86660;-80
2024/01/09 06:01:37;;;;;;;2.33;1.63;;;19.10;44.80;;;;;;4957166;28;90220;-81
2024/01/09 06:04:03;;;;;;;1.88;1.58;;;19.10;44.70;;;;;;4954205;28;87473;-83
2024/01/09 06:06:29;;;;;;;1.70;1.60;;;19.10;44.80;;;;;;4956060;28;88635;-83
2024/01/09 06:08:55;;;;;;;2.10;1.52;;;19.10;44.70;;;;;;4955424;28;88130;-85
2024/01/09 06:11:21;;;;;;;2.90;1.60;;;19.10;44.80;;;;;;4954861;28;87319;-80
2024/01/09 06:13:47;;;;;;;1.92;1.50;;;19.10;44.90;;;;;;4952039;28;86997;-82
2024/01/09 06:16:13;;;;;;;1.65;1.52;;;19.10;44.70;;;;;;4955370;28;87630;-80
2024/01/09 06:18:39;;;;;;;1.90;1.67;;;19.10;44.70;;;;;;4951843;28;87544;-80
2024/01/09 06:21:04;;;;;;;1.35;1.25;;;19.10;44.80;;;;;;4955025;28;87317;-80
2024/01/09 06:23:30;;;;;;;1.42;1.30;;;19.00;44.70;;;;;;4953479;28;87453;-82
2024/01/09 06:25:56;;;;;;;2.05;1.85;;;19.00;44.60;;;;;;4956360;28;87984;-80
2024/01/09 06:28:22;;;;;;;1.35;1.25;;;19.10;44.60;;;;;;4950571;28;87460;-80
2024/01/09 06:30:47;;;;;;;1.90;1.67;;;19.10;44.70;;;;;;4951696;28;88817;-82
2024/01/09 06:33:13;;;;;;;1.50;1.40;;;19.10;44.80;;;;;;4954350;28;87645;-81
2024/01/09 06:35:39;;;;;;;2.03;1.67;;;19.00;44.70;;;;;;4953085;28;88228;-80
2024/01/09 06:38:04;;;;;;;2.15;1.63;;;19.10;45.00;;;;;;4955440;28;87866;-80
2024/01/09 06:40:30;;;;;;;2.33;1.80;;;19.00;44.90;;;;;;4956137;28;87258;-81
2024/01/09 06:42:56;;;;;;;1.77;1.55;;;19.00;44.80;;;;;;4950605;28;87500;-80
2024/01/09 06:45:21;;;;;;;1.90;1.70;;;19.00;44.70;;;;;;4955134;28;87537;-80
2024/01/09 06:47:47;;;;;;;2.22;1.80;;;19.00;44.70;;;;;;4951096;28;87122;-80
2024/01/09 06:50:13;;;;;;;1.83;1.60;;;19.00;44.60;;;;;;4950742;28;88044;-80
2024/01/09 06:52:39;;;;;;;1.75;1.52;;;19.00;44.70;;;;;;4954684;28;87276;-80
2024/01/09 06:55:05;;;;;;;1.92;1.55;;;19.00;44.60;;;;;;4953102;28;88633;-84
2024/01/09 06:57:31;;;;;;;1.98;1.52;;;19.00;44.50;;;;;;4950698;28;90405;-87
2024/01/09 06:59:56;;;;;;;1.80;1.60;;;19.00;44.50;;;;;;4954989;28;87521;-82
2024/01/09 07:02:22;;;;;;;1.60;1.40;;;19.00;44.40;;;;;;4951493;28;88250;-80
2024/01/09 07:04:48;;;;;;;1.67;1.58;;;19.00;44.60;;;;;;4951453;28;87736;-80
2024/01/09 07:07:14;;;;;;;3.13;1.75;;;19.00;44.60;;;;;;4949891;28;87975;-81
2024/01/09 07:09:40;;;;;;;2.05;1.45;;;19.00;44.20;;;;;;4948946;28;87028;-79
2024/01/09 07:12:09;;;;;;;1.70;1.60;;;19.00;44.40;;;;;;4952372;28;86877;-80
2024/01/09 07:14:35;;;;;;;2.08;1.63;;;19.00;44.30;;;;;;4949740;28;89434;-81
2024/01/09 07:17:03;;;;;;;1.48;1.38;;;19.00;44.20;;;;;;4948089;28;87759;-80
2024/01/09 07:19:28;;;;;;;2.15;1.70;;;19.00;44.30;;;;;;4947926;28;87941;-80
2024/01/09 07:21:54;;;;;;;1.50;1.25;;;19.00;44.30;;;;;;4954795;28;87570;-80
2024/01/09 07:24:20;;;;;;;1.80;1.50;;;19.00;44.50;;;;;;4955694;28;90600;-80
2024/01/09 07:26:45;;;;;;;1.50;1.40;;;19.00;44.40;;;;;;4954097;28;87723;-80
2024/01/09 07:29:16;;;;;;;3.47;1.55;;;19.00;44.20;;;;;;4953599;28;87679;-83
2024/01/09 07:31:42;;;;;;;2.55;1.35;;;19.00;44.40;;;;;;4951576;28;87957;-83
2024/01/09 07:34:08;;;;;;;2.17;1.65;;;19.00;44.50;;;;;;4951160;28;88294;-83
2024/01/09 07:36:34;;;;;;;1.85;1.25;;;19.00;44.70;;;;;;4953225;28;89164;-83
2024/01/09 07:38:59;;;;;;;3.08;1.33;;;19.10;45.00;;;;;;4953250;28;87210;-82
2024/01/09 07:41:25;;;;;;;2.78;1.75;;;19.10;45.20;;;;;;4951837;28;87884;-86
2024/01/09 07:43:51;;;;;;;3.35;1.40;;;19.10;45.20;;;;;;4954971;28;89011;-80
2024/01/09 07:46:17;;;;;;;1.30;1.20;;;19.20;45.40;;;;;;4952818;28;88190;-81
2024/01/09 07:48:43;;;;;;;1.63;1.45;;;19.20;45.60;;;;;;4955499;28;88237;-81
2024/01/09 07:51:09;;;;;;;2.00;1.35;;;19.20;45.70;;;;;;4954131;28;87861;-83
2024/01/09 07:53:35;;;;;;;2.05;1.67;;;19.30;45.90;;;;;;4959233;28;87981;-80
2024/01/09 07:56:00;;;;;;;2.63;1.58;;;19.50;45.90;;;;;;4959239;28;89221;-80
2024/01/09 07:58:26;;;;;;;1.48;1.35;;;19.60;45.90;;;;;;4954959;28;87457;-81
2024/01/09 08:00:53;;;;;;;1.50;1.40;;;19.70;45.50;;;;;;4956795;28;86945;-80
2024/01/09 08:03:19;;;;;;;1.65;1.20;;;20.00;45.40;;;;;;4958862;28;88329;-80
2024/01/09 08:05:45;;;;;;;2.05;1.25;;;20.00;45.20;;;;;;4952599;28;89001;-86
2024/01/09 08:08:11;;;;;;;2.05;1.45;;;20.10;45.10;;;;;;4954518;28;88850;-80
2024/01/09 08:10:37;;;;;;;1.85;1.45;;;20.20;45.00;;;;;;4956545;28;88199;-81
2024/01/09 08:13:02;;;;;;;1.85;1.25;;;20.30;44.80;;;;;;4952681;28;88198;-80
2024/01/09 08:15:29;;;;;;;1.27;1.10;;;20.30;44.70;;;;;;4956169;28;87776;-80
2024/01/09 08:17:54;;;;;;;2.03;1.33;;;20.40;44.60;;;;;;4954087;28;87635;-80
2024/01/09 08:20:20;;;;;;;1.85;1.27;;;20.50;44.50;;;;;;4953569;28;87946;-81
2024/01/09 08:22:48;;;;;;;1.30;1.05;;;20.60;44.40;;;;;;4954711;28;88600;-79
2024/01/09 08:25:13;;;;;;;2.15;1.40;;;20.70;44.30;;;;;;4955745;28;87757;-84
2024/01/09 08:27:39;;;;;;;3.53;1.70;;;20.60;44.70;;;;;;4956979;28;87973;-82
2024/01/09 08:30:08;;;;;;;4.47;1.60;;;20.60;44.50;;;;;;4959292;28;87708;-81
2024/01/09 08:32:33;;;;;;;2.97;1.40;;;20.60;44.50;;;;;;4951825;28;91236;-83
2024/01/09 08:34:59;;;;;;;2.40;1.83;;;20.60;44.20;;;;;;4957040;28;88744;-81
2024/01/09 08:37:25;;;;;;;53.63;10.50;;;20.60;43.90;;;;;;4957750;28;87492;-84
2024/01/09 08:39:50;;;;;;;47.20;10.02;;;20.60;42.90;;;;;;4955722;28;88144;-81
2024/01/09 08:42:16;;;;;;;36.75;9.27;;;20.60;42.30;;;;;;4953665;28;87496;-81
2024/01/09 08:44:41;;;;;;;34.63;7.00;;;20.60;42.70;;;;;;4954108;28;90714;-83
2024/01/09 08:47:07;;;;;;;27.50;6.95;;;20.50;42.80;;;;;;4958294;28;88093;-82
2024/01/09 08:49:33;;;;;;;31.13;7.10;;;20.50;43.20;;;;;;4958533;28;86708;-81
2024/01/09 08:51:59;;;;;;;25.50;5.75;;;20.50;43.30;;;;;;4952310;28;87609;-80
2024/01/09 08:54:24;;;;;;;24.27;5.53;;;20.50;43.30;;;;;;4952184;28;88337;-81
2024/01/09 08:56:50;;;;;;;20.15;5.15;;;20.50;43.30;;;;;;4953428;28;88905;-80
2024/01/09 08:59:15;;;;;;;27.83;6.45;;;20.40;43.20;;;;;;4954323;28;89196;-84
2024/01/09 09:01:41;;;;;;;24.58;5.30;;;20.40;43.30;;;;;;4954984;28;88114;-80
2024/01/09 09:04:07;;;;;;;24.27;4.68;;;20.40;43.20;;;;;;4954979;28;88470;-81
2024/01/09 09:06:33;;;;;;;20.70;5.03;;;20.40;43.20;;;;;;4953101;28;87918;-80
2024/01/09 09:08:59;;;;;;;15.60;4.35;;;20.30;42.90;;;;;;4954564;28;88069;-80
2024/01/09 09:11:24;;;;;;;16.70;4.50;;;20.30;43.20;;;;;;4948951;28;93070;-82
2024/01/09 09:13:50;;;;;;;22.95;5.07;;;20.30;43.30;;;;;;4950231;28;92602;-82
2024/01/09 09:16:16;;;;;;;20.40;5.18;;;20.30;43.60;;;;;;4953586;28;92725;-80
2024/01/09 09:18:42;;;;;;;21.33;5.80;;;20.30;43.60;;;;;;4952240;28;93525;-80
2024/01/09 09:21:08;;;;;;;19.50;5.70;;;20.30;43.90;;;;;;4954435;28;93533;-81
2024/01/09 09:23:34;;;;;;;14.93;4.55;;;20.40;43.90;;;;;;4953219;28;93432;-80
2024/01/09 09:26:00;;;;;;;11.68;4.13;;;20.40;43.70;;;;;;4952501;28;92932;-80
2024/01/09 09:28:26;;;;;;;16.48;5.10;;;20.40;43.90;;;;;;4954827;28;93017;-80
2024/01/09 09:30:53;;;;;;;18.95;4.45;;;20.40;44.00;;;;;;4952783;28;93178;-80
2024/01/09 09:33:20;;;;;;;16.58;5.18;;;20.40;43.90;;;;;;4952180;28;92621;-80
2024/01/09 09:35:46;;;;;;;13.20;3.90;;;20.40;43.60;;;;;;4950997;28;92234;-81
2024/01/09 09:38:13;;;;;;;11.18;4.00;;;20.40;43.60;;;;;;4951388;28;92453;-80
2024/01/09 09:40:39;;;;;;;11.48;4.05;;;20.40;43.50;;;;;;4948675;28;93085;-80
2024/01/09 09:43:06;;;;;;;17.08;4.20;;;20.40;43.40;;;;;;4952447;28;93717;-82
2024/01/09 09:45:32;;;;;;;16.83;4.40;;;20.40;43.50;;;;;;4950883;28;93171;-80
2024/01/09 09:48:00;;;;;;;11.90;3.63;;;20.40;43.40;;;;;;4953394;28;92832;-80
2024/01/09 09:50:27;;;;;;;14.48;3.88;;;20.40;43.50;;;;;;4953226;28;92973;-82
2024/01/09 09:52:56;;;;;;;19.75;4.45;;;20.40;43.50;;;;;;4954018;28;99292;-81
2024/01/09 09:55:22;;;;;;;14.40;4.45;;;20.30;43.50;;;;;;4950996;28;92803;-82
2024/01/09 09:57:48;;;;;;;11.32;3.45;;;20.40;43.40;;;;;;4953450;28;92805;-82
2024/01/09 10:00:14;;;;;;;10.68;4.32;;;20.30;43.60;;;;;;4953017;28;94915;-80
2024/01/09 10:02:48;;;;;;;12.52;3.53;;;20.30;43.70;;;;;;4950335;28;93141;-81
2024/01/09 10:05:17;;;;;;;13.18;4.22;;;20.30;43.70;;;;;;4950485;28;92362;-82
2024/01/09 10:07:52;;;;;;;14.05;4.05;;;20.30;43.80;;;;;;4951226;28;92360;-80
2024/01/09 10:10:19;;;;;;;10.23;3.38;;;20.40;43.80;;;;;;4947883;28;93627;-80
2024/01/09 10:12:48;;;;;;;11.93;3.83;;;20.40;43.80;;;;;;4952383;28;93180;-81
2024/01/09 10:15:16;;;;;;;9.52;4.05;;;20.40;43.80;;;;;;4950202;28;92851;-80
2024/01/09 10:17:42;;;;;;;11.20;3.30;;;20.40;43.80;;;;;;4951036;28;92685;-80
2024/01/09 10:20:10;;;;;;;12.18;3.92;;;20.40;43.50;;;;;;4951099;28;93618;-80
2024/01/09 10:22:38;;;;;;;7.20;3.00;;;20.40;43.40;;;;;;4948655;28;92926;-80
2024/01/09 10:25:10;;;;;;;13.65;4.05;;;20.40;43.40;;;;;;4953092;28;93146;-82
2024/01/09 10:27:36;;;;;;;15.30;4.03;;;20.40;43.40;;;;;;4950039;28;92266;-82
2024/01/09 10:30:09;;;;;;;12.55;3.88;;;20.40;44.00;;;;;;4951220;28;93138;-83
2024/01/09 10:32:39;;;;;;;11.85;3.58;;;20.40;43.40;;;;;;4952025;28;93959;-80
2024/01/09 10:35:05;;;;;;;11.38;3.05;;;20.40;43.40;;;;;;4952812;28;93903;-80
2024/01/09 10:37:32;;;;;;;7.88;2.90;;;20.40;43.60;;;;;;4952246;28;92872;-80
2024/01/09 10:39:59;;;;;;;11.43;3.80;;;20.40;43.80;;;;;;4961953;28;92131;-84
2024/01/09 10:42:25;;;;;;;8.20;3.10;;;20.40;43.80;;;;;;4960359;28;92804;-80
2024/01/09 10:44:51;;;;;;;10.85;3.92;;;20.40;44.00;;;;;;4959093;28;92345;-80
2024/01/09 10:47:18;;;;;;;12.95;3.88;;;20.40;43.80;;;;;;4955177;28;92924;-80
2024/01/09 10:49:45;;;;;;;7.25;3.15;;;20.40;43.70;;;;;;4949224;28;92700;-82
2024/01/09 10:52:17;;;;;;;7.93;3.38;;;20.40;43.80;;;;;;4950470;28;93055;-80
2024/01/09 10:54:44;;;;;;;8.15;3.05;;;20.40;43.70;;;;;;4951954;28;92677;-80
2024/01/09 10:57:15;;;;;;;10.13;3.95;;;20.40;43.60;;;;;;4951212;28;92582;-80
2024/01/09 10:59:45;;;;;;;10.55;3.80;;;20.40;43.60;;;;;;4954387;28;93712;-80
2024/01/09 11:02:21;;;;;;;7.03;2.90;;;20.40;43.80;;;;;;4948799;28;93773;-80
2024/01/09 11:04:47;;;;;;;11.40;3.88;;;20.40;43.70;;;;;;4949815;28;92536;-83
2024/01/09 11:07:16;;;;;;;9.32;2.92;;;20.40;43.70;;;;;;4953525;28;92559;-81
2024/01/09 11:09:43;;;;;;;6.07;2.80;;;20.40;43.50;;;;;;4951402;28;93144;-80
2024/01/09 11:12:18;;;;;;;7.07;3.33;;;20.40;43.80;;;;;;4950632;28;93218;-80
2024/01/09 11:14:49;;;;;;;8.70;2.47;;;20.40;43.60;;;;;;4948130;28;92533;-83
2024/01/09 11:17:17;;;;;;;7.75;2.88;;;20.40;43.80;;;;;;4954014;28;92259;-80
2024/01/09 11:19:43;;;;;;;4.63;2.50;;;20.40;43.80;;;;;;4953047;28;93229;-83
2024/01/09 11:22:17;;;;;;;8.80;2.83;;;20.40;44.20;;;;;;4955107;28;92765;-84
2024/01/09 11:24:48;;;;;;;8.60;2.67;;;20.40;43.80;;;;;;4957386;28;93506;-87
2024/01/09 11:27:17;;;;;;;7.45;2.55;;;20.40;42.90;;;;;;4954840;28;92039;-82
2024/01/09 11:29:51;;;;;;;6.40;2.97;;;20.50;43.70;;;;;;4957562;28;92655;-86
2024/01/09 11:32:17;;;;;;;7.45;3.05;;;20.50;43.10;;;;;;4953078;28;94514;-82
2024/01/09 11:34:45;;;;;;;5.75;2.80;;;20.60;43.30;;;;;;4962812;28;92511;-83
2024/01/09 11:37:22;;;;;;;5.65;2.33;;;20.70;43.70;;;;;;4962925;28;92017;-86
2024/01/09 11:39:48;;;;;;;8.00;3.22;;;20.80;43.60;;;;;;4968032;28;92713;-87
2024/01/09 11:42:15;;;;;;;4.38;2.35;;;20.80;43.80;;;;;;4963027;28;93446;-83
2024/01/09 11:44:41;;;;;;;5.18;2.70;;;20.80;43.80;;;;;;4973450;28;91997;-87
2024/01/09 11:47:06;;;;;;;5.00;2.42;;;20.90;43.70;;;;;;4968784;28;92084;-86
2024/01/09 11:49:33;;;;;;;6.47;2.88;;;21.00;44.00;;;;;;4964201;28;94856;-85
2024/01/09 11:51:59;;;;;;;11.35;2.92;;;21.00;44.00;;;;;;4957456;28;94203;-85
2024/01/09 11:54:25;;;;;;;5.95;2.70;;;21.10;43.80;;;;;;4958121;28;92168;-83
2024/01/09 11:56:51;;;;;;;4.63;2.65;;;21.10;43.80;;;;;;4970858;28;92568;-83
2024/01/09 11:59:18;;;;;;;6.28;2.40;;;21.10;42.20;;;;;;4977921;28;92132;-84
2024/01/09 12:01:46;;;;;;;6.85;2.45;;;21.10;43.00;;;;;;4979853;28;92877;-85
2024/01/09 12:04:12;;;;;;;8.80;2.63;;;21.20;43.40;;;;;;4979504;28;93874;-83
2024/01/09 12:06:38;;;;;;;5.82;2.47;;;21.20;43.40;;;;;;4970085;28;91548;-84
2024/01/09 12:09:05;;;;;;;7.97;2.70;;;21.30;43.60;;;;;;4967869;28;92736;-80
2024/01/09 12:11:30;;;;;;;5.45;2.75;;;21.30;43.70;;;;;;4961489;28;92784;-82
2024/01/09 12:14:00;;;;;;;4.20;2.22;;;21.30;43.90;;;;;;4961616;28;93166;-83
2024/01/09 12:16:29;;;;;;;8.38;2.95;;;21.30;43.90;;;;;;4960533;28;93631;-82
2024/01/09 12:18:56;;;;;;;7.43;2.60;;;21.40;44.10;;;;;;4963351;28;93186;-80
2024/01/09 12:21:25;;;;;;;8.75;2.83;;;21.50;44.20;;;;;;4957814;28;92327;-83
2024/01/09 12:23:55;;;;;;;4.97;2.30;;;21.50;44.10;;;;;;4957616;28;92841;-81
2024/01/09 12:26:21;;;;;;;;;;;21.50;44.20;;;;;;4958084;28;92887;-83
2024/01/09 12:28:47;;;;;;;6.57;2.53;;;21.60;44.30;;;;;;4958842;28;92874;-84
2024/01/09 12:31:18;;;;;;;6.93;2.45;;;21.60;44.10;;;;;;4958181;28;91965;-81
2024/01/09 12:33:47;;;;;;;3.88;2.08;;;21.60;44.20;;;;;;4952063;28;92804;-81
2024/01/09 12:36:17;;;;;;;8.93;2.35;;;21.60;44.20;;;;;;4957582;28;92768;-85
2024/01/09 12:38:43;;;;;;;5.50;2.30;;;21.70;44.00;;;;;;4954373;28;93638;-84
2024/01/09 12:41:09;;;;;;;3.92;2.03;;;21.70;43.20;;;;;;4956690;28;92811;-82